Time;durP1;ratioP1;P1;durP2;ratioP2;P2;SDS_P1;SDS_P2;PMS_P1;PMS_P2;Temp;Humidity;BMP_temperature;BMP_pressure;BME280_temperature;BME280_humidity;BME280_pressure;Samples;Min_cycle;Max_cycle;Signal;HPM_P1;HPM_P2
2023/01/07 00:03:57;;;;;;;1.17;0.00;;;10.20;99.90;;;;;;6274519;22;20027;-96
2023/01/07 00:07:06;;;;;;;0.10;0.00;;;10.30;99.90;;;;;;6251859;22;20020;-96
2023/01/07 00:13:24;;;;;;;0.50;0.50;;;10.30;99.90;;;;;;6206900;23;20024;-95
2023/01/07 00:16:22;;;;;;;0.88;0.68;;;10.30;99.90;;;;;;6226580;23;20046;-95
2023/01/07 00:19:08;;;;;;;0.03;0.03;;;10.30;99.90;;;;;;6234118;23;20008;-96
2023/01/07 00:21:59;;;;;;;0.17;0.17;;;10.20;99.90;;;;;;6206363;23;20013;-95
2023/01/07 00:24:49;;;;;;;;;;;;;;;;;;;;;
2023/01/07 00:27:36;;;;;;;;;;;;;;;;;;;;;
2023/01/07 00:30:22;;;;;;;0.25;0.22;;;10.40;99.90;;;;;;6201438;23;20018;-95
2023/01/07 00:33:25;;;;;;;;;;;;;;;;;;;;;
2023/01/07 00:36:09;;;;;;;0.22;0.22;;;10.40;99.90;;;;;;6253533;23;20054;-96
2023/01/07 00:39:01;;;;;;;0.00;0.00;;;10.40;99.90;;;;;;6231371;23;20502;-96
2023/01/07 00:45:10;;;;;;;0.35;0.35;;;10.40;99.90;;;;;;6166926;23;20044;-96
2023/01/07 00:48:00;;;;;;;0.30;0.20;;;10.40;99.90;;;;;;6136197;23;20060;-96
2023/01/07 00:51:31;;;;;;;;;;;;;;;;;;;;;
2023/01/07 00:57:09;;;;;;;;;;;;;;;;;;;;;
2023/01/07 01:00:37;;;;;;;;;;;;;;;;;;;;;
2023/01/07 01:03:45;;;;;;;;;;;;;;;;;;;;;
2023/01/07 01:10:31;;;;;;;0.10;0.05;;;10.50;99.90;;;;;;6188160;23;20031;-96
2023/01/07 01:16:34;;;;;;;0.10;0.03;;;10.50;99.90;;;;;;6161379;23;20021;-96
2023/01/07 01:19:19;;;;;;;0.10;0.00;;;10.50;99.90;;;;;;6174848;23;20027;-96
2023/01/07 01:22:11;;;;;;;1.23;0.20;;;10.50;99.90;;;;;;6156337;23;20068;-96
2023/01/07 01:28:38;;;;;;;0.13;0.00;;;10.50;99.90;;;;;;6147714;23;20017;-95
2023/01/07 01:34:47;;;;;;;0.00;0.00;;;10.50;99.90;;;;;;6232802;22;20020;-96
2023/01/07 01:38:08;;;;;;;0.00;0.00;;;10.50;99.90;;;;;;6216075;22;20024;-96
2023/01/07 01:44:27;;;;;;;1.65;0.10;;;10.50;99.90;;;;;;6245542;23;20027;-95
2023/01/07 01:48:18;;;;;;;0.45;0.40;;;10.50;99.90;;;;;;6195700;23;20022;-95
2023/01/07 01:51:04;;;;;;;;;;;;;;;;;;;;;
2023/01/07 01:54:06;;;;;;;0.22;0.20;;;10.50;99.90;;;;;;6227240;22;20022;-96
2023/01/07 01:57:20;;;;;;;;;;;;;;;;;;;;;
2023/01/07 02:00:37;;;;;;;;;;;;;;;;;;;;;
2023/01/07 02:06:48;;;;;;;;;;;;;;;;;;;;;
2023/01/07 02:10:00;;;;;;;0.03;0.03;;;10.50;99.90;;;;;;6233894;23;20073;-96
2023/01/07 02:19:26;;;;;;;;;;;;;;;;;;;;;
2023/01/07 02:22:32;;;;;;;;;;;;;;;;;;;;;
2023/01/07 02:25:43;;;;;;;0.00;0.00;;;10.50;99.90;;;;;;6234094;23;20012;-95
2023/01/07 02:29:04;;;;;;;;;;;;;;;;;;;;;
2023/01/07 02:36:01;;;;;;;0.20;0.20;;;10.40;99.90;;;;;;6113529;23;20024;-96
2023/01/07 02:39:09;;;;;;;0.35;0.25;;;10.50;99.90;;;;;;6204924;23;20017;-96
2023/01/07 02:42:48;;;;;;;;;;;;;;;;;;;;;
2023/01/07 02:52:28;;;;;;;;;;;;;;;;;;;;;
2023/01/07 02:55:48;;;;;;;0.20;0.10;;;10.60;99.90;;;;;;6201669;23;20063;-96
2023/01/07 02:58:55;;;;;;;;;;;;;;;;;;;;;
2023/01/07 03:02:22;;;;;;;;;;;;;;;;;;;;;
2023/01/07 03:05:38;;;;;;;0.30;0.30;;;10.60;99.90;;;;;;6198198;23;20017;-96
2023/01/07 03:08:12;;;;;;;0.10;0.05;;;10.60;99.90;;;;;;6177268;23;20016;-96
2023/01/07 03:11:14;;;;;;;;;;;;;;;;;;;;;
2023/01/07 03:14:57;;;;;;;;;;;;;;;;;;;;;
2023/01/07 03:18:28;;;;;;;;;;;;;;;;;;;;;
2023/01/07 03:28:02;;;;;;;0.00;0.00;;;10.40;99.90;;;;;;6211659;23;20028;-96
2023/01/07 03:30:37;;;;;;;;;;;;;;;;;;;;;
2023/01/07 03:34:01;;;;;;;2.65;0.52;;;10.40;99.90;;;;;;6222601;22;20001;-96
2023/01/07 03:36:55;;;;;;;0.03;0.03;;;10.40;99.90;;;;;;6264545;22;20051;-96
2023/01/07 03:44:03;;;;;;;;;;;;;;;;;;;;;
2023/01/07 03:47:02;;;;;;;0.00;0.00;;;10.40;99.90;;;;;;6239336;23;20052;-96
2023/01/07 03:53:14;;;;;;;;;;;;;;;;;;;;;
2023/01/07 03:55:53;;;;;;;;;;;;;;;;;;;;;
2023/01/07 04:02:43;;;;;;;;;;;;;;;;;;;;;
2023/01/07 04:06:08;;;;;;;;;;;;;;;;;;;;;
2023/01/07 04:09:18;;;;;;;;;;;;;;;;;;;;;
2023/01/07 04:12:13;;;;;;;0.17;0.17;;;10.40;99.90;;;;;;6206999;23;20040;-96
2023/01/07 04:14:57;;;;;;;;;;;;;;;;;;;;;
2023/01/07 04:18:07;;;;;;;0.00;0.00;;;10.40;99.90;;;;;;6207522;23;20049;-96
2023/01/07 04:20:55;;;;;;;0.20;0.20;;;10.40;99.90;;;;;;6201268;22;20075;-96
2023/01/07 04:24:16;;;;;;;;;;;;;;;;;;;;;
2023/01/07 04:27:33;;;;;;;;;;;;;;;;;;;;;
2023/01/07 04:30:43;;;;;;;;;;;;;;;;;;;;;
2023/01/07 04:34:10;;;;;;;1.83;0.63;;;10.40;99.90;;;;;;6245681;22;20016;-96
2023/01/07 04:43:11;;;;;;;0.00;0.00;;;10.40;99.90;;;;;;6201046;23;20031;-95
2023/01/07 04:45:48;;;;;;;2.42;0.70;;;10.40;99.90;;;;;;6225817;23;20035;-96
2023/01/07 04:48:45;;;;;;;0.00;0.00;;;10.40;99.90;;;;;;6226148;23;20031;-96
2023/01/07 04:51:24;;;;;;;;;;;;;;;;;;;;;
2023/01/07 04:55:01;;;;;;;;;;;;;;;;;;;;;
2023/01/07 05:04:51;;;;;;;;;;;;;;;;;;;;;
2023/01/07 05:07:32;;;;;;;0.08;0.08;;;10.20;99.90;;;;;;6235542;23;20024;-95
2023/01/07 05:10:40;;;;;;;;;;;;;;;;;;;;;
2023/01/07 05:13:47;;;;;;;;;;;;;;;;;;;;;
2023/01/07 05:16:41;;;;;;;0.30;0.30;;;10.20;99.90;;;;;;6224433;23;20019;-96
2023/01/07 05:19:43;;;;;;;;;;;;;;;;;;;;;
2023/01/07 05:22:28;;;;;;;;;;;;;;;;;;;;;
2023/01/07 05:28:43;;;;;;;;;;;;;;;;;;;;;
2023/01/07 05:31:36;;;;;;;;;;;;;;;;;;;;;
2023/01/07 05:34:25;;;;;;;0.00;0.00;;;10.20;99.90;;;;;;6241988;23;20035;-96
2023/01/07 05:37:33;;;;;;;;;;;;;;;;;;;;;
2023/01/07 05:43:44;;;;;;;0.00;0.00;;;10.10;99.90;;;;;;6234673;23;20024;-96
2023/01/07 05:46:36;;;;;;;0.75;0.10;;;10.00;99.90;;;;;;6183473;23;20131;-96
2023/01/07 05:49:42;;;;;;;0.00;0.00;;;10.00;99.90;;;;;;6208431;23;20016;-96
2023/01/07 05:58:14;;;;;;;0.10;0.10;;;10.00;99.90;;;;;;6209844;23;20031;-96
2023/01/07 06:04:19;;;;;;;;;;;;;;;;;;;;;
2023/01/07 06:09:44;;;;;;;0.90;0.88;;;9.90;99.90;;;;;;6207761;22;20028;-96
2023/01/07 06:13:02;;;;;;;;;;;;;;;;;;;;;
2023/01/07 06:16:40;;;;;;;0.00;0.00;;;9.90;99.90;;;;;;6211435;23;20061;-96
2023/01/07 06:19:39;;;;;;;;;;;;;;;;;;;;;
2023/01/07 06:23:17;;;;;;;;;;;;;;;;;;;;;
2023/01/07 06:26:33;;;;;;;;;;;;;;;;;;;;;
2023/01/07 06:32:47;;;;;;;0.00;0.00;;;10.10;99.90;;;;;;6075859;23;20026;-96
2023/01/07 06:39:13;;;;;;;;;;;;;;;;;;;;;
2023/01/07 06:42:00;;;;;;;;;;;;;;;;;;;;;
2023/01/07 06:44:39;;;;;;;0.30;0.05;;;10.10;99.90;;;;;;6116082;23;20026;-96
2023/01/07 06:47:58;;;;;;;;;;;;;;;;;;;;;
2023/01/07 06:50:55;;;;;;;0.20;0.00;;;9.90;99.90;;;;;;6204832;23;20020;-96
2023/01/07 06:53:39;;;;;;;0.20;0.20;;;10.00;99.90;;;;;;6213877;23;20030;-96
2023/01/07 06:59:52;;;;;;;;;;;;;;;;;;;;;
2023/01/07 07:05:58;;;;;;;0.00;0.00;;;10.00;99.90;;;;;;6210239;23;20051;-96
2023/01/07 07:08:34;;;;;;;;;;;;;;;;;;;;;
2023/01/07 07:14:13;;;;;;;;;;;;;;;;;;;;;
2023/01/07 07:16:48;;;;;;;0.00;0.00;;;9.90;99.90;;;;;;6208723;23;20008;-96
2023/01/07 07:19:49;;;;;;;;;;;;;;;;;;;;;
2023/01/07 07:22:23;;;;;;;0.00;0.00;;;9.80;99.90;;;;;;6235494;23;20038;-96
2023/01/07 07:25:12;;;;;;;0.10;0.10;;;9.70;99.90;;;;;;6241204;22;20019;-96
2023/01/07 07:28:00;;;;;;;0.00;0.00;;;9.70;99.90;;;;;;6201300;23;20020;-96
2023/01/07 07:30:37;;;;;;;0.00;0.00;;;9.60;99.90;;;;;;6195659;23;20020;-95
2023/01/07 07:33:31;;;;;;;0.00;0.00;;;9.70;99.90;;;;;;6177439;23;20141;-96
2023/01/07 07:36:24;;;;;;;0.10;0.10;;;9.70;99.90;;;;;;6198782;23;20018;-95
2023/01/07 07:38:57;;;;;;;0.00;0.00;;;9.70;99.90;;;;;;6225451;23;20426;-96
2023/01/07 07:42:01;;;;;;;;;;;;;;;;;;;;;
2023/01/07 07:44:31;;;;;;;0.20;0.15;;;9.70;99.90;;;;;;6205147;23;20019;-95
2023/01/07 07:50:21;;;;;;;0.00;0.00;;;9.70;99.90;;;;;;6174957;22;20087;-96
2023/01/07 07:53:17;;;;;;;0.30;0.10;;;9.70;99.90;;;;;;6181878;22;20015;-96
2023/01/07 07:56:24;;;;;;;0.00;0.00;;;9.70;99.90;;;;;;6219275;22;20422;-94
2023/01/07 07:59:22;;;;;;;;;;;;;;;;;;;;;
2023/01/07 08:02:21;;;;;;;;;;;;;;;;;;;;;
2023/01/07 08:04:54;;;;;;;0.00;0.00;;;9.70;99.90;;;;;;6225402;23;20441;-95
2023/01/07 08:07:25;;;;;;;0.08;0.08;;;9.70;99.90;;;;;;6200183;23;20020;-95
2023/01/07 08:09:57;;;;;;;0.10;0.00;;;9.70;99.90;;;;;;6173594;23;20430;-96
2023/01/07 08:12:34;;;;;;;0.00;0.00;;;9.70;99.90;;;;;;6203199;23;20023;-96
2023/01/07 08:18:24;;;;;;;0.38;0.22;;;9.60;99.90;;;;;;6253373;23;20098;-96
2023/01/07 08:24:44;;;;;;;0.00;0.00;;;9.70;99.90;;;;;;6170572;23;20016;-96
2023/01/07 08:27:43;;;;;;;;;;;;;;;;;;;;;
2023/01/07 08:34:17;;;;;;;;;;;;;;;;;;;;;
2023/01/07 08:40:56;;;;;;;0.00;0.00;;;9.90;99.90;;;;;;6158928;23;20068;-92
2023/01/07 08:43:50;;;;;;;;;;;;;;;;;;;;;
2023/01/07 08:58:57;;;;;;;0.10;0.00;;;10.40;99.90;;;;;;6144988;22;20012;31
2023/01/07 09:21:44;;;;;;;0.00;0.00;;;10.10;99.90;;;;;;6127419;23;20028;-87
2023/01/07 09:24:14;;;;;;;2.80;0.22;;;10.20;99.90;;;;;;6166261;23;20020;-88
2023/01/07 09:26:52;;;;;;;0.00;0.00;;;10.20;99.90;;;;;;6167531;23;20465;-86
2023/01/07 09:47:36;;;;;;;;;;;;;;;;;;;;;
2023/01/07 10:10:16;;;;;;;;;;;;;;;;;;;;;
2023/01/07 10:18:05;;;;;;;0.00;0.00;;;11.00;99.90;;;;;;6123756;23;20459;-95
2023/01/07 10:20:44;;;;;;;0.00;0.00;;;10.90;99.90;;;;;;6019607;23;20091;-96
2023/01/07 10:23:38;;;;;;;0.03;0.03;;;10.90;99.90;;;;;;6216126;23;20023;-91
2023/01/07 10:26:19;;;;;;;0.20;0.10;;;11.00;99.90;;;;;;6191286;23;20017;-88
2023/01/07 10:28:53;;;;;;;0.00;0.00;;;10.90;99.90;;;;;;6191264;23;20016;-88
2023/01/07 10:31:25;;;;;;;0.00;0.00;;;10.90;99.90;;;;;;6215811;23;20518;-88
2023/01/07 10:33:51;;;;;;;0.25;0.25;;;10.90;99.90;;;;;;6191052;23;20023;-84
2023/01/07 10:36:33;;;;;;;0.60;0.17;;;10.90;99.90;;;;;;6217111;23;20035;-89
2023/01/07 10:39:18;;;;;;;0.00;0.00;;;10.90;99.90;;;;;;6193322;23;20012;-88
2023/01/07 10:42:06;;;;;;;0.00;0.00;;;10.90;99.90;;;;;;6218214;23;20013;-89
2023/01/07 10:44:50;;;;;;;0.00;0.00;;;10.90;99.90;;;;;;6218528;23;20342;-88
2023/01/07 10:47:29;;;;;;;0.00;0.00;;;10.90;99.90;;;;;;6193527;23;20020;-88
2023/01/07 10:50:32;;;;;;;0.08;0.08;;;10.90;99.90;;;;;;6218631;23;20017;-88
2023/01/07 10:53:35;;;;;;;0.00;0.00;;;10.90;99.90;;;;;;6218335;23;20024;-87
2023/01/07 10:56:28;;;;;;;0.10;0.08;;;10.90;99.90;;;;;;6218120;23;20019;-87
2023/01/07 10:58:54;;;;;;;0.22;0.00;;;11.00;99.90;;;;;;6193552;23;20020;-88
2023/01/07 11:01:25;;;;;;;0.00;0.00;;;11.00;99.90;;;;;;6217701;23;20016;-88
2023/01/07 11:03:54;;;;;;;0.00;0.00;;;11.00;99.90;;;;;;6192479;23;20051;-87
2023/01/07 11:06:47;;;;;;;0.00;0.00;;;11.00;99.90;;;;;;6192447;23;20012;-88
2023/01/07 11:09:18;;;;;;;0.00;0.00;;;11.00;99.90;;;;;;6217779;23;20376;-88
2023/01/07 11:11:45;;;;;;;0.00;0.00;;;11.00;99.90;;;;;;6193366;23;20017;-88
2023/01/07 11:14:31;;;;;;;0.98;0.08;;;11.00;99.90;;;;;;6217717;23;20013;-88
2023/01/07 11:17:32;;;;;;;0.00;0.00;;;11.00;99.90;;;;;;6192817;23;20095;-88
2023/01/07 11:19:58;;;;;;;0.00;0.00;;;11.00;99.90;;;;;;6217478;23;20055;-88
2023/01/07 11:22:26;;;;;;;0.00;0.00;;;11.00;99.90;;;;;;6167198;23;20020;-88
2023/01/07 11:24:57;;;;;;;0.13;0.10;;;10.90;99.90;;;;;;6217391;23;20021;-88
2023/01/07 11:27:30;;;;;;;0.00;0.00;;;11.00;99.90;;;;;;6166902;23;20048;-88
2023/01/07 11:30:24;;;;;;;0.00;0.00;;;11.00;99.90;;;;;;6192649;23;20367;-88
2023/01/07 11:32:58;;;;;;;0.00;0.00;;;11.00;99.90;;;;;;6191404;23;20016;-87
2023/01/07 11:35:27;;;;;;;0.00;0.00;;;11.00;99.90;;;;;;6216382;23;20075;-88
2023/01/07 11:37:55;;;;;;;0.17;0.00;;;11.00;99.90;;;;;;6192612;23;20023;-87
2023/01/07 11:40:50;;;;;;;0.00;0.00;;;11.00;99.90;;;;;;6192170;23;20509;-88
2023/01/07 11:43:20;;;;;;;0.00;0.00;;;11.00;99.90;;;;;;6216383;23;20016;-87
2023/01/07 11:45:54;;;;;;;0.00;0.00;;;11.10;99.90;;;;;;6217354;23;20078;-88
2023/01/07 11:49:09;;;;;;;;;;;;;;;;;;;;;
2023/01/07 11:51:51;;;;;;;;;;;;;;;;;;;;;
2023/01/07 11:54:30;;;;;;;0.00;0.00;;;11.20;99.90;;;;;;6216604;23;20012;-89
2023/01/07 11:57:41;;;;;;;1.35;0.35;;;11.30;99.90;;;;;;6192029;23;20023;-88
2023/01/07 12:00:20;;;;;;;0.00;0.00;;;11.30;99.90;;;;;;6134350;23;20057;-89
2023/01/07 12:03:06;;;;;;;0.22;0.15;;;11.30;99.90;;;;;;6167398;23;20022;-89
2023/01/07 12:05:45;;;;;;;;;;;;;;;;;;;;;
2023/01/07 12:08:32;;;;;;;;;;;;;;;;;;;;;
2023/01/07 12:14:01;;;;;;;1.98;0.08;;;11.50;99.90;;;;;;6192469;23;20028;-89
2023/01/07 12:16:40;;;;;;;0.00;0.00;;;11.60;99.90;;;;;;6192482;23;20504;-88
2023/01/07 12:19:15;;;;;;;0.08;0.00;;;12.10;99.90;;;;;;6192510;23;20109;-88
2023/01/07 12:22:20;;;;;;;0.00;0.00;;;12.40;99.90;;;;;;6192988;23;20027;-88
2023/01/07 12:25:04;;;;;;;0.57;0.07;;;12.70;99.90;;;;;;6192770;23;20042;-89
2023/01/07 12:27:51;;;;;;;0.00;0.00;;;12.80;99.90;;;;;;6192097;23;20012;-90
2023/01/07 12:30:39;;;;;;;0.00;0.00;;;13.00;99.90;;;;;;6217277;23;20036;-88
2023/01/07 12:34:01;;;;;;;0.00;0.00;;;13.20;99.90;;;;;;6121254;23;20017;-90
2023/01/07 12:36:48;;;;;;;0.00;0.00;;;13.30;99.90;;;;;;6078628;23;20066;-90
2023/01/07 12:39:24;;;;;;;0.00;0.00;;;13.20;99.90;;;;;;6167587;23;20021;-90
2023/01/07 12:42:16;;;;;;;0.00;0.00;;;13.20;99.90;;;;;;6168277;23;20020;-90
2023/01/07 12:44:50;;;;;;;0.45;0.00;;;13.10;99.90;;;;;;6193676;23;20020;-89
2023/01/07 12:47:26;;;;;;;0.00;0.00;;;12.80;99.90;;;;;;6200171;23;20089;-90
2023/01/07 12:50:12;;;;;;;0.00;0.00;;;12.70;99.90;;;;;;6217403;23;20001;-89
2023/01/07 12:52:46;;;;;;;0.13;0.10;;;12.50;99.90;;;;;;6190005;23;20028;-90
2023/01/07 12:55:27;;;;;;;0.95;0.38;;;12.30;99.90;;;;;;6171359;23;20343;-90
2023/01/07 12:58:05;;;;;;;0.00;0.00;;;12.20;99.90;;;;;;6194539;23;20079;-91
2023/01/07 13:00:36;;;;;;;0.00;0.00;;;12.00;99.90;;;;;;6167697;23;20024;-89
2023/01/07 13:03:16;;;;;;;0.00;0.00;;;11.90;99.90;;;;;;6216791;23;20016;-88
2023/01/07 13:06:04;;;;;;;3.53;1.08;;;11.90;99.90;;;;;;6191879;23;20461;-90
2023/01/07 13:08:44;;;;;;;0.00;0.00;;;11.90;99.90;;;;;;6217341;23;20013;-90
2023/01/07 13:12:41;;;;;;;0.15;0.15;;;11.80;99.90;;;;;;6217069;23;20115;-90
2023/01/07 13:14:14;;;;;;;1.00;0.33;;;11.70;99.90;;;;;;6217646;23;20027;-90
2023/01/07 13:16:48;;;;;;;;;;;11.70;99.90;;;;;;6217479;23;20017;-89
2023/01/07 13:19:29;;;;;;;;;;;;;;;;;;;;;
2023/01/07 13:22:05;;;;;;;;;;;;;;;;;;;;;
2023/01/07 13:25:19;;;;;;;0.13;0.13;;;11.70;99.90;;;;;;6216298;23;20012;-89
2023/01/07 13:28:22;;;;;;;0.00;0.00;;;11.70;99.90;;;;;;6174181;23;20023;-90
2023/01/07 13:31:09;;;;;;;0.00;0.00;;;11.70;99.90;;;;;;6217103;23;20347;-89
2023/01/07 13:33:46;;;;;;;0.20;0.20;;;11.70;99.90;;;;;;6191491;23;20027;-90
2023/01/07 13:36:46;;;;;;;;;;;;;;;;;;;;;
2023/01/07 13:39:52;;;;;;;0.20;0.20;;;11.60;99.90;;;;;;6217047;23;20023;-89
2023/01/07 13:42:27;;;;;;;0.05;0.00;;;11.60;99.90;;;;;;6101244;23;20034;-89
2023/01/07 13:45:23;;;;;;;0.00;0.00;;;11.60;99.90;;;;;;6125504;23;20169;-90
2023/01/07 13:48:02;;;;;;;0.10;0.10;;;11.60;99.90;;;;;;6185982;23;20016;-90
2023/01/07 13:50:59;;;;;;;0.00;0.00;;;11.60;99.90;;;;;;6191741;23;20096;-89
2023/01/07 13:53:44;;;;;;;;;;;;;;;;;;;;;
2023/01/07 13:56:16;;;;;;;;;;;11.50;99.90;;;;;;6218207;23;20038;-90
2023/01/07 13:58:52;;;;;;;0.00;0.00;;;11.60;99.90;;;;;;6191647;23;19916;-90
2023/01/07 14:01:24;;;;;;;0.00;0.00;;;11.40;99.90;;;;;;6216640;23;20116;-89
2023/01/07 14:04:25;;;;;;;0.00;0.00;;;11.50;99.90;;;;;;6216807;23;20067;-90
2023/01/07 14:07:14;;;;;;;0.00;0.00;;;11.50;99.90;;;;;;6190816;23;20100;-90
2023/01/07 14:09:57;;;;;;;0.00;0.00;;;11.50;99.90;;;;;;6216262;23;20021;-89
2023/01/07 14:13:03;;;;;;;0.00;0.00;;;11.50;99.90;;;;;;6217632;23;20024;-90
2023/01/07 14:15:39;;;;;;;;;;;;;;;;;;;;;
2023/01/07 14:18:23;;;;;;;0.00;0.00;;;11.40;99.90;;;;;;6217552;23;19916;-90
2023/01/07 14:21:01;;;;;;;0.00;0.00;;;11.40;99.90;;;;;;6217231;23;20027;-90
2023/01/07 14:23:54;;;;;;;0.20;0.10;;;11.40;99.90;;;;;;6192774;23;20466;-90
2023/01/07 14:26:41;;;;;;;0.22;0.00;;;11.30;99.90;;;;;;6216801;23;20071;-89
2023/01/07 14:29:26;;;;;;;0.00;0.00;;;11.30;99.90;;;;;;6216193;23;20473;-89
2023/01/07 14:32:18;;;;;;;0.00;0.00;;;11.20;99.90;;;;;;6215745;23;20028;-89
2023/01/07 14:34:55;;;;;;;0.00;0.00;;;11.20;99.90;;;;;;6191133;23;20017;-85
2023/01/07 14:37:37;;;;;;;0.00;0.00;;;11.10;99.90;;;;;;6215628;23;20023;-84
2023/01/07 14:40:25;;;;;;;0.00;0.00;;;11.10;99.90;;;;;;6190364;23;20402;-85
2023/01/07 14:43:01;;;;;;;0.00;0.00;;;11.10;99.90;;;;;;6215918;23;20016;-83
2023/01/07 14:45:39;;;;;;;0.22;0.00;;;11.00;99.90;;;;;;6216518;23;20016;-84
2023/01/07 14:48:10;;;;;;;0.10;0.00;;;11.00;99.90;;;;;;6215120;23;20021;-86
2023/01/07 14:51:16;;;;;;;0.03;0.03;;;10.90;99.90;;;;;;6237381;23;20505;-86
2023/01/07 14:54:01;;;;;;;0.15;0.15;;;10.90;99.90;;;;;;6216502;23;20012;-83
2023/01/07 14:56:57;;;;;;;0.65;0.38;;;10.80;99.90;;;;;;6191106;23;20052;-85
2023/01/07 14:59:23;;;;;;;0.00;0.00;;;10.80;99.90;;;;;;6215722;23;20079;-83
2023/01/07 15:02:03;;;;;;;0.00;0.00;;;10.80;99.90;;;;;;6214423;23;20020;-83
2023/01/07 15:04:44;;;;;;;0.00;0.00;;;10.70;99.90;;;;;;6215590;23;20028;-84
2023/01/07 15:07:28;;;;;;;;;;;;;;;;;;;;;
2023/01/07 15:16:02;;;;;;;0.00;0.00;;;10.60;99.90;;;;;;6215184;23;20443;-87
2023/01/07 15:18:42;;;;;;;0.30;0.20;;;10.60;99.90;;;;;;6216528;23;20028;-90
2023/01/07 15:21:35;;;;;;;1.15;0.80;;;10.50;99.90;;;;;;6191374;23;20017;-90
2023/01/07 15:24:19;;;;;;;0.00;0.00;;;10.50;99.90;;;;;;6218256;23;20068;-89
2023/01/07 15:27:04;;;;;;;0.17;0.13;;;10.40;99.90;;;;;;6218571;23;20044;-90
2023/01/07 15:30:01;;;;;;;0.00;0.00;;;10.40;99.90;;;;;;6197975;23;20387;-89
2023/01/07 15:33:00;;;;;;;1.27;0.30;;;10.40;99.90;;;;;;6197803;23;20451;-89
2023/01/07 15:35:32;;;;;;;0.13;0.13;;;10.30;99.90;;;;;;6219040;23;20074;-89
2023/01/07 15:38:01;;;;;;;0.00;0.00;;;10.30;99.90;;;;;;6218114;23;20013;-89
2023/01/07 15:40:27;;;;;;;0.80;0.22;;;10.30;99.90;;;;;;6168861;23;20025;-89
2023/01/07 15:43:01;;;;;;;0.38;0.22;;;10.20;99.90;;;;;;6168581;23;20021;-90
2023/01/07 15:45:39;;;;;;;0.57;0.00;;;10.20;99.90;;;;;;6193713;23;20027;-90
2023/01/07 15:48:10;;;;;;;0.00;0.00;;;10.20;99.90;;;;;;6192631;23;20052;-90
2023/01/07 15:50:58;;;;;;;;;;;;;;;;;;;;;
2023/01/07 15:53:28;;;;;;;0.00;0.00;;;10.20;99.90;;;;;;6194747;23;20339;-84
2023/01/07 15:55:59;;;;;;;0.10;0.00;;;10.10;99.90;;;;;;6216964;23;20075;-85
2023/01/07 15:59:05;;;;;;;0.00;0.00;;;10.10;99.90;;;;;;6216974;23;20021;-90
2023/01/07 16:01:55;;;;;;;0.00;0.00;;;10.20;99.90;;;;;;6193031;23;20017;-90
2023/01/07 16:04:33;;;;;;;0.65;0.00;;;10.00;99.90;;;;;;6193286;23;20063;-90
2023/01/07 16:07:07;;;;;;;0.00;0.00;;;10.00;99.90;;;;;;6218307;23;20056;-89
2023/01/07 16:09:48;;;;;;;0.00;0.00;;;10.00;99.90;;;;;;6192090;23;20462;-90
2023/01/07 16:12:34;;;;;;;0.00;0.00;;;10.00;99.90;;;;;;6219263;23;20034;-89
2023/01/07 16:15:32;;;;;;;0.98;0.30;;;10.00;99.90;;;;;;6168906;23;20517;-89
2023/01/07 16:18:17;;;;;;;;;;;;;;;;;;;;;
2023/01/07 16:21:00;;;;;;;0.00;0.00;;;9.90;99.90;;;;;;6218634;23;20016;-90
2023/01/07 16:23:39;;;;;;;3.65;0.68;;;9.90;99.90;;;;;;6193595;23;20025;-89
2023/01/07 16:29:42;;;;;;;0.20;0.10;;;10.00;99.90;;;;;;6214136;23;20477;-89
2023/01/07 16:32:34;;;;;;;0.00;0.00;;;9.90;99.90;;;;;;6192478;23;20398;-89
2023/01/07 16:35:36;;;;;;;1.95;0.32;;;9.90;99.90;;;;;;6191808;23;20450;-89
2023/01/07 16:38:11;;;;;;;0.00;0.00;;;9.90;99.90;;;;;;6190733;23;20021;-89
2023/01/07 16:40:46;;;;;;;0.00;0.00;;;9.90;99.90;;;;;;6169568;23;20016;-89
2023/01/07 16:43:31;;;;;;;;;;;9.90;99.90;;;;;;6180547;23;20020;-88
2023/01/07 16:46:20;;;;;;;0.75;0.10;;;9.90;99.90;;;;;;6236661;23;19956;-89
2023/01/07 16:49:13;;;;;;;0.00;0.00;;;10.00;99.90;;;;;;6234497;23;20012;-89
2023/01/07 16:52:10;;;;;;;0.00;0.00;;;10.00;99.90;;;;;;6255587;23;20021;-89
2023/01/07 16:54:59;;;;;;;0.00;0.00;;;9.90;99.90;;;;;;6181988;23;20036;-90
2023/01/07 16:58:08;;;;;;;0.00;0.00;;;9.90;99.90;;;;;;6193999;23;20730;-90
2023/01/07 17:00:56;;;;;;;;;;;;;;;;;;;;;
2023/01/07 17:04:21;;;;;;;;;;;;;;;;;;;;;
2023/01/07 17:07:36;;;;;;;;;;;;;;;;;;;;;
2023/01/07 17:13:24;;;;;;;0.20;0.20;;;10.00;99.90;;;;;;6197840;23;20047;-91
2023/01/07 17:16:46;;;;;;;;;;;;;;;;;;;;;
2023/01/07 17:27:51;;;;;;;;;;;;;;;;;;;;;
2023/01/07 17:49:14;;;;;;;0.05;0.03;;;10.10;99.90;;;;;;6103206;23;20040;-90
2023/01/07 17:52:06;;;;;;;0.00;0.00;;;10.10;99.90;;;;;;6085237;23;20006;-92
2023/01/07 17:55:04;;;;;;;0.43;0.13;;;10.10;99.90;;;;;;6106655;23;20108;-91
2023/01/07 18:00:34;;;;;;;0.00;0.00;;;10.10;99.90;;;;;;6101911;23;20022;-85
2023/01/07 18:03:10;;;;;;;0.28;0.05;;;10.10;99.90;;;;;;6187609;23;20027;-85
2023/01/07 18:05:40;;;;;;;0.00;0.00;;;10.10;99.90;;;;;;6173152;23;20016;-83
2023/01/07 18:08:05;;;;;;;0.00;0.00;;;10.20;99.90;;;;;;6220292;23;20016;-84
2023/01/07 18:12:29;;;;;;;0.00;0.00;;;10.20;99.90;;;;;;6171856;23;20024;-84
2023/01/07 18:13:27;;;;;;;0.00;0.00;;;10.20;99.90;;;;;;6202557;23;20031;-84
2023/01/07 18:15:56;;;;;;;0.00;0.00;;;10.10;99.90;;;;;;6147603;23;20426;-85
2023/01/07 18:18:34;;;;;;;0.00;0.00;;;10.10;99.90;;;;;;6221170;23;20354;-84
2023/01/07 18:21:03;;;;;;;0.00;0.00;;;10.20;99.90;;;;;;6196483;23;20315;-85
2023/01/07 18:23:31;;;;;;;0.00;0.00;;;10.20;99.90;;;;;;6220770;23;20039;-85
2023/01/07 18:26:00;;;;;;;0.28;0.00;;;10.10;99.90;;;;;;6196952;23;20013;-85
2023/01/07 18:28:36;;;;;;;0.80;0.30;;;10.10;99.90;;;;;;6170359;23;20039;-84
2023/01/07 18:31:06;;;;;;;0.15;0.15;;;10.00;99.90;;;;;;6196675;23;20051;-85
2023/01/07 18:33:35;;;;;;;1.20;0.10;;;10.00;99.90;;;;;;6194966;23;20063;-85
2023/01/07 18:36:21;;;;;;;1.88;0.10;;;10.00;99.90;;;;;;6146519;23;20020;-86
2023/01/07 18:38:52;;;;;;;0.00;0.00;;;9.80;99.90;;;;;;6171277;23;20016;-85
2023/01/07 18:41:27;;;;;;;0.25;0.10;;;9.80;99.90;;;;;;6195449;23;20020;-84
2023/01/07 18:43:55;;;;;;;0.20;0.13;;;9.80;99.90;;;;;;6195219;23;20023;-86
2023/01/07 18:46:23;;;;;;;0.03;0.03;;;9.80;99.90;;;;;;6194490;23;20023;-84
2023/01/07 18:49:05;;;;;;;0.10;0.10;;;9.60;99.90;;;;;;6195173;23;20024;-84
2023/01/07 18:51:44;;;;;;;;;;;;;;;;;;;;;
2023/01/07 18:54:12;;;;;;;0.08;0.00;;;9.70;99.90;;;;;;6220453;23;20023;-86
2023/01/07 18:56:44;;;;;;;0.00;0.00;;;9.70;99.90;;;;;;6196504;23;20015;-85
2023/01/07 18:59:21;;;;;;;0.30;0.20;;;9.70;99.90;;;;;;6222195;23;20343;-87
2023/01/07 19:02:12;;;;;;;;;;;;;;;;;;;;;
2023/01/07 19:04:50;;;;;;;0.08;0.08;;;9.70;99.90;;;;;;6201722;23;20012;-86
2023/01/07 19:07:27;;;;;;;0.10;0.05;;;9.70;99.90;;;;;;6200302;23;20043;-96
2023/01/07 19:10:06;;;;;;;;;;;;;;;;;;;;;
2023/01/07 19:12:44;;;;;;;0.00;0.00;;;9.60;99.90;;;;;;6222055;23;20099;-85
2023/01/07 19:16:08;;;;;;;;;;;;;;;;;;;;;
2023/01/07 19:18:44;;;;;;;0.00;0.00;;;9.60;99.90;;;;;;6208428;23;20103;-93
2023/01/07 19:21:40;;;;;;;;;;;;;;;;;;;;;
2023/01/07 19:24:14;;;;;;;0.00;0.00;;;9.60;99.90;;;;;;6205338;23;20019;-94
2023/01/07 19:27:06;;;;;;;0.00;0.00;;;9.60;99.90;;;;;;6175579;23;20024;-94
2023/01/07 19:29:58;;;;;;;0.13;0.10;;;9.60;99.90;;;;;;6200533;23;20047;-95
2023/01/07 19:41:12;;;;;;;0.00;0.00;;;9.60;99.90;;;;;;6099871;23;20105;-95
2023/01/07 19:44:21;;;;;;;;;;;;;;;;;;;;;
2023/01/07 19:47:17;;;;;;;;;;;;;;;;;;;;;
2023/01/07 19:50:42;;;;;;;0.00;0.00;;;9.70;99.90;;;;;;6250439;23;20086;-94
2023/01/07 19:56:39;;;;;;;;;;;;;;;;;;;;;
2023/01/07 19:59:17;;;;;;;0.00;0.00;;;9.70;99.90;;;;;;6204637;23;20020;-95
2023/01/07 20:05:28;;;;;;;0.05;0.00;;;9.60;99.90;;;;;;6210952;23;20054;-94
2023/01/07 20:08:36;;;;;;;;;;;;;;;;;;;;;
2023/01/07 20:14:57;;;;;;;;;;;;;;;;;;;;;
2023/01/07 20:17:51;;;;;;;;;;;;;;;;;;;;;
2023/01/07 20:33:56;;;;;;;;;;;;;;;;;;;;;
2023/01/07 20:37:26;;;;;;;;;;;;;;;;;;;;;
2023/01/07 20:40:54;;;;;;;0.00;0.00;;;9.90;99.90;;;;;;6185291;23;20047;-91
2023/01/07 20:47:51;;;;;;;0.00;0.00;;;9.90;99.90;;;;;;6192881;23;20056;-90
2023/01/07 20:53:40;;;;;;;0.00;0.00;;;9.90;99.90;;;;;;6211821;23;20023;-92
2023/01/07 20:59:20;;;;;;;0.45;0.10;;;9.90;99.90;;;;;;6213038;23;20023;-92
2023/01/07 21:01:49;;;;;;;0.00;0.00;;;9.90;99.90;;;;;;6174659;23;20016;-92
2023/01/07 21:04:34;;;;;;;;;;;;;;;;;;;;;
2023/01/07 21:07:15;;;;;;;0.00;0.00;;;10.00;99.90;;;;;;6223573;23;20047;-91
2023/01/07 21:09:51;;;;;;;0.80;0.10;;;10.00;99.90;;;;;;6174226;23;20099;-92
2023/01/07 21:12:42;;;;;;;;;;;;;;;;;;;;;
2023/01/07 21:15:42;;;;;;;;;;;;;;;;;;;;;
2023/01/07 21:18:28;;;;;;;0.05;0.00;;;10.00;99.90;;;;;;6223672;23;20016;-91
2023/01/07 21:21:49;;;;;;;0.00;0.00;;;10.10;99.90;;;;;;6188493;23;20064;-92
2023/01/07 21:24:30;;;;;;;;;;;;;;;;;;;;;
2023/01/07 21:27:17;;;;;;;0.00;0.00;;;10.00;99.90;;;;;;6223930;23;20016;-91
2023/01/07 21:29:55;;;;;;;0.10;0.10;;;10.10;99.90;;;;;;6198399;23;20024;-92
2023/01/07 21:32:42;;;;;;;0.00;0.00;;;10.10;99.90;;;;;;6175434;23;20447;-92
2023/01/07 21:35:28;;;;;;;0.00;0.00;;;10.10;99.90;;;;;;6192907;23;20039;-92
2023/01/07 21:38:14;;;;;;;0.00;0.00;;;10.10;99.90;;;;;;6146395;23;20016;-91
2023/01/07 21:41:06;;;;;;;0.13;0.10;;;10.10;99.90;;;;;;6172984;23;20020;-92
2023/01/07 21:43:47;;;;;;;;;;;;;;;;;;;;;
2023/01/07 21:46:36;;;;;;;0.03;0.03;;;10.10;99.90;;;;;;6191696;23;20051;-91